createdAt,value
2023-01-19T00:00:11.588Z,93.5
2023-01-19T00:05:17.647Z,93
2023-01-19T00:10:23.772Z,93.5
2023-01-19T00:15:29.748Z,94
2023-01-19T00:20:35.936Z,94
2023-01-19T00:25:42.029Z,94
2023-01-19T00:30:48.005Z,93.5
2023-01-19T00:35:54.244Z,94
2023-01-19T00:41:00.349Z,94
2023-01-19T00:46:06.425Z,95
2023-01-19T00:51:11.371Z,95.5
2023-01-19T00:56:17.644Z,96
2023-01-19T01:01:23.727Z,95.5
2023-01-19T01:06:29.760Z,96
2023-01-19T01:11:35.890Z,96
2023-01-19T01:16:41.868Z,96
2023-01-19T01:21:48.063Z,95
2023-01-19T01:26:54.189Z,94
2023-01-19T01:32:00.302Z,93.5
2023-01-19T01:37:06.433Z,93.5
2023-01-19T01:42:12.489Z,94
2023-01-19T01:47:18.436Z,94
2023-01-19T01:52:24.618Z,93.5
2023-01-19T01:57:30.847Z,93.5
2023-01-19T02:02:35.925Z,93.5
2023-01-19T02:07:42.017Z,93.5
2023-01-19T02:12:48.071Z,94
2023-01-19T02:17:54.038Z,94.5
2023-01-19T02:23:00.287Z,94
2023-01-19T02:28:06.456Z,93.5
2023-01-19T02:33:12.491Z,93
2023-01-19T02:38:18.604Z,93.5
2023-01-19T02:43:24.711Z,93.5
2023-01-19T02:48:30.778Z,93
2023-01-19T02:53:36.743Z,92
2023-01-19T02:58:42.936Z,92
2023-01-19T03:03:49.136Z,92
2023-01-19T03:08:54.184Z,92.5
2023-01-19T03:14:00.305Z,93
2023-01-19T03:19:06.247Z,93.5
2023-01-19T03:24:12.504Z,94.5
2023-01-19T03:29:18.663Z,95.5
2023-01-19T03:34:24.785Z,95
2023-01-19T03:39:30.621Z,94.5
2023-01-19T03:44:36.998Z,94
2023-01-19T03:49:43.008Z,93.5
2023-01-19T03:54:48.992Z,93
2023-01-19T03:59:55.210Z,93.5
2023-01-19T04:05:01.329Z,93.5
2023-01-19T04:10:07.241Z,93.5
2023-01-19T04:15:12.589Z,92.5
2023-01-19T04:20:18.452Z,91.5
2023-01-19T04:25:24.639Z,91.5
2023-01-19T04:30:30.834Z,90.5
2023-01-19T04:35:36.905Z,91
2023-01-19T04:40:43.037Z,91
2023-01-19T04:45:49.102Z,91
2023-01-19T04:50:55.189Z,91.5
2023-01-19T04:56:01.394Z,92
2023-01-19T05:01:07.395Z,92
2023-01-19T05:06:13.528Z,91.5
2023-01-19T05:11:19.615Z,91.5
2023-01-19T05:16:25.687Z,92
2023-01-19T05:21:30.673Z,92
2023-01-19T05:26:36.975Z,93
2023-01-19T05:31:43.025Z,94.5
2023-01-19T05:36:48.981Z,95
2023-01-19T05:41:55.257Z,94
2023-01-19T05:47:01.452Z,93
2023-01-19T05:52:07.456Z,94
2023-01-19T05:57:13.383Z,94
2023-01-19T06:02:19.515Z,94
2023-01-19T06:07:25.803Z,95
2023-01-19T06:12:31.766Z,95
2023-01-19T06:17:37.948Z,94.5
2023-01-19T06:22:44.097Z,94
2023-01-19T06:27:49.073Z,93.5
2023-01-19T06:32:55.244Z,93.5
2023-01-19T06:38:01.314Z,94
2023-01-19T06:43:07.394Z,94
2023-01-19T06:48:13.576Z,94.5
2023-01-19T06:53:19.700Z,94.5
2023-01-19T06:58:25.792Z,94.5
2023-01-19T07:03:31.938Z,94.5
2023-01-19T07:08:38.067Z,94
2023-01-19T07:13:43.999Z,94
2023-01-19T07:18:50.289Z,94
2023-01-19T07:23:56.307Z,94.5
2023-01-19T07:29:02.406Z,94
2023-01-19T07:34:07.516Z,94
2023-01-19T07:39:13.573Z,94
2023-01-19T07:44:19.730Z,94
2023-01-19T07:49:25.779Z,93.5
2023-01-19T07:54:31.913Z,93.5
2023-01-19T07:59:37.958Z,93.5
2023-01-19T08:04:44.087Z,94
2023-01-19T08:09:50.106Z,94.5
2023-01-19T08:14:56.141Z,93.5
2023-01-19T08:20:02.230Z,92.5
2023-01-19T08:25:08.292Z,92
2023-01-19T08:30:14.397Z,91
2023-01-19T08:40:26.603Z,91
2023-01-19T08:45:31.785Z,91
2023-01-19T08:50:37.813Z,90
2023-01-19T08:55:43.920Z,89.5
2023-01-19T09:00:50.075Z,89
2023-01-19T09:05:56.324Z,88.5
2023-01-19T09:11:02.432Z,87.5
2023-01-19T09:16:08.314Z,87
2023-01-19T09:21:14.413Z,87
2023-01-19T09:26:20.508Z,86.5
2023-01-19T09:31:26.609Z,86.5
2023-01-19T09:36:32.716Z,85.5
2023-01-19T09:41:38.811Z,85
2023-01-19T09:46:44.902Z,84
2023-01-19T09:51:50.020Z,85.5
2023-01-19T09:56:56.159Z,84.5
2023-01-19T10:02:02.272Z,84
2023-01-19T10:07:08.304Z,83
2023-01-19T10:12:14.417Z,83.5
2023-01-19T10:17:20.515Z,82
2023-01-19T10:22:26.666Z,81.5
2023-01-19T10:27:32.712Z,81.5
2023-01-19T10:32:38.782Z,81
2023-01-19T10:37:44.885Z,80
2023-01-19T10:42:51.076Z,79.5
2023-01-19T10:47:57.083Z,79.5
2023-01-19T10:53:03.325Z,79
2023-01-19T10:58:08.294Z,78.5
2023-01-19T11:03:14.396Z,77.5
2023-01-19T11:08:20.491Z,77.5
2023-01-19T11:13:26.593Z,76.5
2023-01-19T11:18:32.743Z,76.5
2023-01-19T11:23:38.893Z,76.5
2023-01-19T11:28:44.881Z,75.5
2023-01-19T11:33:51.003Z,75
2023-01-19T11:38:57.096Z,75.5
2023-01-19T11:44:03.208Z,75.5
2023-01-19T11:49:09.299Z,75.5
2023-01-19T11:54:15.369Z,75
2023-01-19T11:59:21.487Z,75
2023-01-19T12:04:26.595Z,75
2023-01-19T12:09:32.719Z,74.5
2023-01-19T12:14:38.801Z,74
2023-01-19T12:19:44.889Z,74
2023-01-19T12:24:50.974Z,72.5
2023-01-19T12:29:57.067Z,73
2023-01-19T12:35:03.264Z,74.5
2023-01-19T12:40:09.276Z,74.5
2023-01-19T12:45:15.397Z,75.5
2023-01-19T12:50:21.456Z,76
2023-01-19T12:55:27.565Z,76.5
2023-01-19T13:00:33.652Z,76.5
2023-01-19T13:05:39.753Z,77
2023-01-19T13:10:44.872Z,77.5
2023-01-19T13:15:50.971Z,77
2023-01-19T13:20:57.055Z,77
2023-01-19T13:26:03.168Z,77
2023-01-19T13:31:09.272Z,77
2023-01-19T13:36:15.356Z,77.5
2023-01-19T13:41:21.541Z,77.5
2023-01-19T13:46:27.541Z,77
2023-01-19T13:51:33.636Z,77.5
2023-01-19T13:56:39.751Z,78
2023-01-19T14:01:45.841Z,78
2023-01-19T14:06:51.949Z,78
2023-01-19T14:11:58.042Z,77.5
2023-01-19T14:17:03.231Z,77.5
2023-01-19T14:22:09.294Z,78
2023-01-19T14:27:15.360Z,78.5
2023-01-19T14:32:21.497Z,79
2023-01-19T14:37:27.559Z,79
2023-01-19T14:42:33.654Z,78.5
2023-01-19T14:47:39.738Z,78.5
2023-01-19T14:52:45.829Z,78.5
2023-01-19T14:57:51.932Z,78.5
2023-01-19T15:02:58.037Z,78.5
2023-01-19T15:08:04.196Z,78
2023-01-19T15:13:10.223Z,78
2023-01-19T15:18:16.332Z,78
2023-01-19T15:23:21.542Z,78
2023-01-19T15:28:27.524Z,78.5
2023-01-19T15:33:33.635Z,79
2023-01-19T15:38:39.732Z,79.5
2023-01-19T15:43:44.878Z,79.5
2023-01-19T15:48:50.939Z,80.5
2023-01-19T15:53:57.045Z,81.5
2023-01-19T15:59:03.155Z,81.5
2023-01-19T16:04:09.234Z,82
2023-01-19T16:09:15.338Z,84
2023-01-19T16:14:21.454Z,85
2023-01-19T16:19:27.546Z,86
2023-01-19T16:24:33.628Z,86.5
2023-01-19T16:29:39.747Z,85
2023-01-19T16:34:45.854Z,84.5
2023-01-19T16:39:51.928Z,84.5
2023-01-19T16:44:58.023Z,85
2023-01-19T16:50:03.121Z,85.5
2023-01-19T16:55:09.278Z,86
2023-01-19T17:00:15.341Z,86.5
2023-01-19T17:05:21.514Z,87.5
2023-01-19T17:10:27.525Z,87.5
2023-01-19T17:15:33.640Z,88
2023-01-19T17:20:39.752Z,88.5
2023-01-19T17:25:45.851Z,89
2023-01-19T17:30:51.944Z,89.5
2023-01-19T17:35:58.026Z,91
2023-01-19T17:41:04.176Z,91.5
2023-01-19T17:46:10.218Z,92
2023-01-19T17:51:16.312Z,92.5
2023-01-19T17:56:21.430Z,93.5
2023-01-19T18:01:27.538Z,94.5
2023-01-19T18:06:33.636Z,96.5
2023-01-19T18:11:39.750Z,98
2023-01-19T18:16:45.827Z,99.5
2023-01-19T18:21:51.940Z,99.5
2023-01-19T18:26:58.078Z,99.5
2023-01-19T18:32:04.117Z,99.5
2023-01-19T18:37:10.270Z,99.5
2023-01-19T18:42:16.376Z,99.5
2023-01-19T18:47:22.405Z,99.5
2023-01-19T18:52:28.508Z,99.5
2023-01-19T18:57:34.610Z,99.5
2023-01-19T19:02:39.730Z,99.5
2023-01-19T19:07:45.826Z,99.5
2023-01-19T19:12:51.932Z,99.5
2023-01-19T19:17:58.025Z,99.5
2023-01-19T19:23:04.113Z,99.5
2023-01-19T19:28:10.262Z,99.5
2023-01-19T19:33:16.326Z,99.5
2023-01-19T19:38:22.490Z,99.5
2023-01-19T19:43:28.518Z,99.5
2023-01-19T19:48:34.634Z,99.5
2023-01-19T19:53:40.705Z,99.5
2023-01-19T19:58:46.818Z,99.5
2023-01-19T20:03:52.952Z,99.5
2023-01-19T20:08:58.035Z,99.5
2023-01-19T20:14:04.128Z,99.5
2023-01-19T20:19:10.300Z,99.5
2023-01-19T20:24:16.339Z,99.5
2023-01-19T20:29:22.463Z,99.5
2023-01-19T20:34:28.527Z,99.5
2023-01-19T20:39:34.618Z,99.5
2023-01-19T20:44:40.850Z,99.5
2023-01-19T20:49:46.824Z,99.5
2023-01-19T20:54:52.921Z,99.5
2023-01-19T20:59:59.025Z,99.5
2023-01-19T21:05:05.104Z,99.5
2023-01-19T21:10:11.212Z,99.5
2023-01-19T21:15:16.318Z,99.5
2023-01-19T21:20:22.435Z,99.5
2023-01-19T21:25:28.516Z,99.5
2023-01-19T21:30:34.628Z,99.5
2023-01-19T21:35:40.716Z,99.5
2023-01-19T21:40:46.817Z,99.5
2023-01-19T21:45:52.923Z,99.5
2023-01-19T21:50:59.014Z,99.5
2023-01-19T21:56:05.122Z,99.5
2023-01-19T22:01:11.241Z,99.5
2023-01-19T22:06:17.334Z,99.5
2023-01-19T22:11:23.416Z,99.5
2023-01-19T22:16:29.510Z,99.5
2023-01-19T22:21:34.656Z,99.5
2023-01-19T22:26:40.746Z,99.5
2023-01-19T22:31:46.853Z,99.5
2023-01-19T22:36:52.967Z,99.5
2023-01-19T22:41:59.032Z,99.5
2023-01-19T22:47:05.138Z,99.5
2023-01-19T22:52:11.249Z,99.5
2023-01-19T22:57:17.342Z,99.5
2023-01-19T23:02:23.431Z,99.5
2023-01-19T23:07:29.555Z,99.5
2023-01-19T23:12:35.634Z,99.5
2023-01-19T23:17:41.739Z,99.5
2023-01-19T23:22:47.833Z,99.5
2023-01-19T23:27:52.955Z,99.5
2023-01-19T23:32:59.050Z,99.5
2023-01-19T23:38:05.156Z,99.5
2023-01-19T23:43:11.259Z,99.5
2023-01-19T23:48:17.359Z,99.5
2023-01-19T23:53:23.454Z,99.5
2023-01-19T23:58:29.553Z,99.5
